sensor_id;sensor_type;location;lat;lon;timestamp;temperature;humidity
72128;DHT22;60000;51.030;7.024;2024-01-30T00:01:54;8.02;82.00
72128;DHT22;60000;51.030;7.024;2024-01-30T00:04:20;8.05;82.05
72128;DHT22;60000;51.030;7.024;2024-01-30T00:06:45;8.02;81.76
72128;DHT22;60000;51.030;7.024;2024-01-30T00:09:11;8.01;81.91
72128;DHT22;60000;51.030;7.024;2024-01-30T00:11:37;8.01;81.97
72128;DHT22;60000;51.030;7.024;2024-01-30T00:14:03;7.99;81.99
72128;DHT22;60000;51.030;7.024;2024-01-30T00:16:28;8.02;81.88
72128;DHT22;60000;51.030;7.024;2024-01-30T00:18:54;8.02;81.97
72128;DHT22;60000;51.030;7.024;2024-01-30T00:21:20;8.02;81.95
72128;DHT22;60000;51.030;7.024;2024-01-30T00:23:45;8.01;81.72
72128;DHT22;60000;51.030;7.024;2024-01-30T00:26:11;8.02;81.83
72128;DHT22;60000;51.030;7.024;2024-01-30T00:28:37;8.02;81.97
72128;DHT22;60000;51.030;7.024;2024-01-30T00:31:03;8.01;82.06
72128;DHT22;60000;51.030;7.024;2024-01-30T00:33:29;7.99;82.06
72128;DHT22;60000;51.030;7.024;2024-01-30T00:35:54;8.05;82.15
72128;DHT22;60000;51.030;7.024;2024-01-30T00:38:20;8.05;81.99
72128;DHT22;60000;51.030;7.024;2024-01-30T00:40:45;8.05;81.96
72128;DHT22;60000;51.030;7.024;2024-01-30T00:43:11;8.02;81.90
72128;DHT22;60000;51.030;7.024;2024-01-30T00:45:36;8.05;81.97
72128;DHT22;60000;51.030;7.024;2024-01-30T00:48:01;8.02;82.04
72128;DHT22;60000;51.030;7.024;2024-01-30T00:50:27;8.03;81.90
72128;DHT22;60000;51.030;7.024;2024-01-30T00:52:52;8.05;81.96
72128;DHT22;60000;51.030;7.024;2024-01-30T00:55:17;8.01;81.93
72128;DHT22;60000;51.030;7.024;2024-01-30T00:57:43;8.02;82.01
72128;DHT22;60000;51.030;7.024;2024-01-30T01:00:08;8.01;81.97
72128;DHT22;60000;51.030;7.024;2024-01-30T01:02:35;7.98;81.93
72128;DHT22;60000;51.030;7.024;2024-01-30T01:05:01;7.97;81.80
72128;DHT22;60000;51.030;7.024;2024-01-30T01:07:26;7.97;82.00
72128;DHT22;60000;51.030;7.024;2024-01-30T01:09:51;7.95;82.13
72128;DHT22;60000;51.030;7.024;2024-01-30T01:12:17;7.97;82.19
72128;DHT22;60000;51.030;7.024;2024-01-30T01:14:42;7.98;82.03
72128;DHT22;60000;51.030;7.024;2024-01-30T01:17:07;7.94;82.01
72128;DHT22;60000;51.030;7.024;2024-01-30T01:19:33;7.95;82.05
72128;DHT22;60000;51.030;7.024;2024-01-30T01:21:58;7.94;82.09
72128;DHT22;60000;51.030;7.024;2024-01-30T01:24:23;7.95;82.23
72128;DHT22;60000;51.030;7.024;2024-01-30T01:26:49;7.92;82.28
72128;DHT22;60000;51.030;7.024;2024-01-30T01:29:14;7.94;82.27
72128;DHT22;60000;51.030;7.024;2024-01-30T01:31:41;7.97;82.55
72128;DHT22;60000;51.030;7.024;2024-01-30T01:34:10;7.97;82.35
72128;DHT22;60000;51.030;7.024;2024-01-30T01:36:35;7.99;82.31
72128;DHT22;60000;51.030;7.024;2024-01-30T01:39:01;7.98;82.13
72128;DHT22;60000;51.030;7.024;2024-01-30T01:41:30;7.97;82.47
72128;DHT22;60000;51.030;7.024;2024-01-30T01:43:56;7.97;82.45
72128;DHT22;60000;51.030;7.024;2024-01-30T01:46:22;8.03;82.37
72128;DHT22;60000;51.030;7.024;2024-01-30T01:48:47;8.05;82.35
72128;DHT22;60000;51.030;7.024;2024-01-30T01:51:14;8.05;82.29
72128;DHT22;60000;51.030;7.024;2024-01-30T01:53:39;8.05;82.14
72128;DHT22;60000;51.030;7.024;2024-01-30T01:56:05;8.08;82.08
72128;DHT22;60000;51.030;7.024;2024-01-30T01:58:31;8.06;82.10
72128;DHT22;60000;51.030;7.024;2024-01-30T02:00:58;8.09;82.08
72128;DHT22;60000;51.030;7.024;2024-01-30T02:03:23;8.11;82.11
72128;DHT22;60000;51.030;7.024;2024-01-30T02:05:50;8.12;82.16
72128;DHT22;60000;51.030;7.024;2024-01-30T02:08:16;8.11;82.00
72128;DHT22;60000;51.030;7.024;2024-01-30T02:10:41;8.09;82.02
72128;DHT22;60000;51.030;7.024;2024-01-30T02:13:07;8.12;82.11
72128;DHT22;60000;51.030;7.024;2024-01-30T02:15:32;8.11;81.88
72128;DHT22;60000;51.030;7.024;2024-01-30T02:17:57;8.12;81.82
72128;DHT22;60000;51.030;7.024;2024-01-30T02:20:24;8.08;81.76
72128;DHT22;60000;51.030;7.024;2024-01-30T02:22:52;8.06;81.77
72128;DHT22;60000;51.030;7.024;2024-01-30T02:25:17;8.08;81.88
72128;DHT22;60000;51.030;7.024;2024-01-30T02:27:43;8.05;81.93
72128;DHT22;60000;51.030;7.024;2024-01-30T02:30:08;8.01;81.82
72128;DHT22;60000;51.030;7.024;2024-01-30T02:32:34;8.03;82.11
72128;DHT22;60000;51.030;7.024;2024-01-30T02:34:59;8.02;82.02
72128;DHT22;60000;51.030;7.024;2024-01-30T02:37:24;8.01;81.93
72128;DHT22;60000;51.030;7.024;2024-01-30T02:39:50;7.99;82.00
72128;DHT22;60000;51.030;7.024;2024-01-30T02:42:15;8.02;82.12
72128;DHT22;60000;51.030;7.024;2024-01-30T02:44:40;7.97;82.00
72128;DHT22;60000;51.030;7.024;2024-01-30T02:47:06;7.94;82.00
72128;DHT22;60000;51.030;7.024;2024-01-30T02:49:31;7.90;82.12
72128;DHT22;60000;51.030;7.024;2024-01-30T02:51:57;7.88;82.07
72128;DHT22;60000;51.030;7.024;2024-01-30T02:54:22;7.85;82.08
72128;DHT22;60000;51.030;7.024;2024-01-30T02:56:47;7.81;82.10
72128;DHT22;60000;51.030;7.024;2024-01-30T02:59:13;7.80;82.41
72128;DHT22;60000;51.030;7.024;2024-01-30T03:01:43;7.78;82.48
72128;DHT22;60000;51.030;7.024;2024-01-30T03:04:09;7.75;82.58
72128;DHT22;60000;51.030;7.024;2024-01-30T03:06:34;7.74;82.59
72128;DHT22;60000;51.030;7.024;2024-01-30T03:08:59;7.74;82.81
72128;DHT22;60000;51.030;7.024;2024-01-30T03:11:25;7.71;82.80
72128;DHT22;60000;51.030;7.024;2024-01-30T03:13:50;7.70;82.81
72128;DHT22;60000;51.030;7.024;2024-01-30T03:16:15;7.74;83.00
72128;DHT22;60000;51.030;7.024;2024-01-30T03:18:40;7.77;83.13
72128;DHT22;60000;51.030;7.024;2024-01-30T03:21:06;7.75;83.04
72128;DHT22;60000;51.030;7.024;2024-01-30T03:23:31;7.77;83.07
72128;DHT22;60000;51.030;7.024;2024-01-30T03:25:57;7.78;83.18
72128;DHT22;60000;51.030;7.024;2024-01-30T03:28:23;7.84;83.32
72128;DHT22;60000;51.030;7.024;2024-01-30T03:30:48;7.85;83.08
72128;DHT22;60000;51.030;7.024;2024-01-30T03:33:13;7.85;82.96
72128;DHT22;60000;51.030;7.024;2024-01-30T03:35:39;7.90;83.08
72128;DHT22;60000;51.030;7.024;2024-01-30T03:38:04;7.91;82.90
72128;DHT22;60000;51.030;7.024;2024-01-30T03:40:29;7.91;82.71
72128;DHT22;60000;51.030;7.024;2024-01-30T03:42:54;7.92;82.83
72128;DHT22;60000;51.030;7.024;2024-01-30T03:45:20;7.97;82.91
72128;DHT22;60000;51.030;7.024;2024-01-30T03:47:45;8.03;82.89
72128;DHT22;60000;51.030;7.024;2024-01-30T03:50:11;8.08;82.74
72128;DHT22;60000;51.030;7.024;2024-01-30T03:52:36;8.12;82.38
72128;DHT22;60000;51.030;7.024;2024-01-30T03:55:01;8.18;82.25
72128;DHT22;60000;51.030;7.024;2024-01-30T03:57:26;8.18;82.02
72128;DHT22;60000;51.030;7.024;2024-01-30T03:59:52;8.21;81.79
72128;DHT22;60000;51.030;7.024;2024-01-30T04:02:18;8.25;81.86
72128;DHT22;60000;51.030;7.024;2024-01-30T04:04:44;8.26;81.59
72128;DHT22;60000;51.030;7.024;2024-01-30T04:07:09;8.25;81.58
72128;DHT22;60000;51.030;7.024;2024-01-30T04:09:34;8.24;81.38
72128;DHT22;60000;51.030;7.024;2024-01-30T04:12:00;8.26;81.30
72128;DHT22;60000;51.030;7.024;2024-01-30T04:14:27;8.26;81.41
72128;DHT22;60000;51.030;7.024;2024-01-30T04:16:53;8.29;81.50
72128;DHT22;60000;51.030;7.024;2024-01-30T04:19:18;8.31;81.42
72128;DHT22;60000;51.030;7.024;2024-01-30T04:21:44;8.31;81.19
72128;DHT22;60000;51.030;7.024;2024-01-30T04:24:09;8.29;81.17
72128;DHT22;60000;51.030;7.024;2024-01-30T04:26:34;8.29;81.12
72128;DHT22;60000;51.030;7.024;2024-01-30T04:29:00;8.32;81.17
72128;DHT22;60000;51.030;7.024;2024-01-30T04:31:25;8.29;81.06
72128;DHT22;60000;51.030;7.024;2024-01-30T04:33:50;8.29;81.01
72128;DHT22;60000;51.030;7.024;2024-01-30T04:36:16;8.31;81.01
72128;DHT22;60000;51.030;7.024;2024-01-30T04:38:41;8.32;80.98
72128;DHT22;60000;51.030;7.024;2024-01-30T04:41:07;8.29;80.96
72128;DHT22;60000;51.030;7.024;2024-01-30T04:43:32;8.31;80.93
72128;DHT22;60000;51.030;7.024;2024-01-30T04:45:57;8.29;80.93
72128;DHT22;60000;51.030;7.024;2024-01-30T04:48:23;8.25;80.80
72128;DHT22;60000;51.030;7.024;2024-01-30T04:50:48;8.18;80.76
72128;DHT22;60000;51.030;7.024;2024-01-30T04:53:13;8.15;81.11
72128;DHT22;60000;51.030;7.024;2024-01-30T04:55:38;8.13;81.37
72128;DHT22;60000;51.030;7.024;2024-01-30T04:58:04;8.08;81.34
72128;DHT22;60000;51.030;7.024;2024-01-30T05:00:29;8.08;81.25
72128;DHT22;60000;51.030;7.024;2024-01-30T05:02:55;8.05;81.38
72128;DHT22;60000;51.030;7.024;2024-01-30T05:05:21;8.01;81.43
72128;DHT22;60000;51.030;7.024;2024-01-30T05:07:47;7.94;81.54
72128;DHT22;60000;51.030;7.024;2024-01-30T05:10:12;7.90;81.69
72128;DHT22;60000;51.030;7.024;2024-01-30T05:12:39;7.85;81.97
72128;DHT22;60000;51.030;7.024;2024-01-30T05:15:04;7.80;82.10
72128;DHT22;60000;51.030;7.024;2024-01-30T05:17:29;7.75;82.24
72128;DHT22;60000;51.030;7.024;2024-01-30T05:19:55;7.73;82.31
72128;DHT22;60000;51.030;7.024;2024-01-30T05:22:20;7.69;82.45
72128;DHT22;60000;51.030;7.024;2024-01-30T05:24:46;7.69;82.58
72128;DHT22;60000;51.030;7.024;2024-01-30T05:27:11;7.69;82.86
72128;DHT22;60000;51.030;7.024;2024-01-30T05:29:38;7.64;82.82
72128;DHT22;60000;51.030;7.024;2024-01-30T05:32:04;7.57;82.67
72128;DHT22;60000;51.030;7.024;2024-01-30T05:34:30;7.49;82.59
72128;DHT22;60000;51.030;7.024;2024-01-30T05:36:56;7.42;82.68
72128;DHT22;60000;51.030;7.024;2024-01-30T05:39:21;7.40;83.21
72128;DHT22;60000;51.030;7.024;2024-01-30T05:41:46;7.37;83.56
72128;DHT22;60000;51.030;7.024;2024-01-30T05:44:12;7.34;83.60
72128;DHT22;60000;51.030;7.024;2024-01-30T05:46:37;7.36;83.95
72128;DHT22;60000;51.030;7.024;2024-01-30T05:49:02;7.34;83.97
72128;DHT22;60000;51.030;7.024;2024-01-30T05:51:28;7.37;84.15
72128;DHT22;60000;51.030;7.024;2024-01-30T05:53:53;7.37;84.22
72128;DHT22;60000;51.030;7.024;2024-01-30T05:56:19;7.39;84.27
72128;DHT22;60000;51.030;7.024;2024-01-30T05:58:44;7.37;84.32
72128;DHT22;60000;51.030;7.024;2024-01-30T06:01:10;7.43;84.40
72128;DHT22;60000;51.030;7.024;2024-01-30T06:03:35;7.50;84.36
72128;DHT22;60000;51.030;7.024;2024-01-30T06:06:01;7.51;84.34
72128;DHT22;60000;51.030;7.024;2024-01-30T06:08:26;7.53;84.33
72128;DHT22;60000;51.030;7.024;2024-01-30T06:10:51;7.53;84.10
72128;DHT22;60000;51.030;7.024;2024-01-30T06:13:17;7.59;84.27
72128;DHT22;60000;51.030;7.024;2024-01-30T06:15:42;7.63;84.15
72128;DHT22;60000;51.030;7.024;2024-01-30T06:18:08;7.66;84.13
72128;DHT22;60000;51.030;7.024;2024-01-30T06:20:33;7.73;84.00
72128;DHT22;60000;51.030;7.024;2024-01-30T06:22:59;7.74;83.86
72128;DHT22;60000;51.030;7.024;2024-01-30T06:25:24;7.78;83.65
72128;DHT22;60000;51.030;7.024;2024-01-30T06:27:50;7.85;83.68
72128;DHT22;60000;51.030;7.024;2024-01-30T06:30:15;7.92;83.41
72128;DHT22;60000;51.030;7.024;2024-01-30T06:32:40;7.97;83.24
72128;DHT22;60000;51.030;7.024;2024-01-30T06:35:06;7.98;83.05
72128;DHT22;60000;51.030;7.024;2024-01-30T06:37:31;8.03;83.02
72128;DHT22;60000;51.030;7.024;2024-01-30T06:39:57;8.06;82.91
72128;DHT22;60000;51.030;7.024;2024-01-30T06:42:22;8.06;82.79
72128;DHT22;60000;51.030;7.024;2024-01-30T06:44:47;8.09;82.80
72128;DHT22;60000;51.030;7.024;2024-01-30T06:47:13;8.06;82.82
72128;DHT22;60000;51.030;7.024;2024-01-30T06:49:38;8.05;82.67
72128;DHT22;60000;51.030;7.024;2024-01-30T06:52:06;8.08;82.80
72128;DHT22;60000;51.030;7.024;2024-01-30T06:54:31;8.06;82.75
72128;DHT22;60000;51.030;7.024;2024-01-30T06:56:58;8.09;82.77
72128;DHT22;60000;51.030;7.024;2024-01-30T06:59:23;8.13;82.79
72128;DHT22;60000;51.030;7.024;2024-01-30T07:01:48;8.13;82.66
72128;DHT22;60000;51.030;7.024;2024-01-30T07:04:14;8.18;82.59
72128;DHT22;60000;51.030;7.024;2024-01-30T07:06:39;8.15;82.42
72128;DHT22;60000;51.030;7.024;2024-01-30T07:09:04;8.18;82.49
72128;DHT22;60000;51.030;7.024;2024-01-30T07:11:30;8.18;82.39
72128;DHT22;60000;51.030;7.024;2024-01-30T07:13:55;8.18;82.39
72128;DHT22;60000;51.030;7.024;2024-01-30T07:16:21;8.18;82.35
72128;DHT22;60000;51.030;7.024;2024-01-30T07:18:47;8.18;82.25
72128;DHT22;60000;51.030;7.024;2024-01-30T07:21:13;8.18;82.27
72128;DHT22;60000;51.030;7.024;2024-01-30T07:23:38;8.16;82.13
72128;DHT22;60000;51.030;7.024;2024-01-30T07:26:07;8.13;82.20
72128;DHT22;60000;51.030;7.024;2024-01-30T07:28:33;8.13;82.26
72128;DHT22;60000;51.030;7.024;2024-01-30T07:30:59;8.08;82.20
72128;DHT22;60000;51.030;7.024;2024-01-30T07:33:24;8.11;82.40
72128;DHT22;60000;51.030;7.024;2024-01-30T07:35:52;8.11;82.45
72128;DHT22;60000;51.030;7.024;2024-01-30T07:38:17;8.13;82.70
72128;DHT22;60000;51.030;7.024;2024-01-30T07:40:42;8.16;82.65
72128;DHT22;60000;51.030;7.024;2024-01-30T07:43:08;8.19;82.59
72128;DHT22;60000;51.030;7.024;2024-01-30T07:45:33;8.21;82.51
72128;DHT22;60000;51.030;7.024;2024-01-30T07:47:59;8.25;82.66
72128;DHT22;60000;51.030;7.024;2024-01-30T07:50:27;8.29;82.64
72128;DHT22;60000;51.030;7.024;2024-01-30T07:52:53;8.36;82.50
72128;DHT22;60000;51.030;7.024;2024-01-30T07:55:23;8.42;82.39
72128;DHT22;60000;51.030;7.024;2024-01-30T07:57:54;8.46;82.29
72128;DHT22;60000;51.030;7.024;2024-01-30T08:00:23;8.52;82.25
72128;DHT22;60000;51.030;7.024;2024-01-30T08:02:48;8.59;82.08
72128;DHT22;60000;51.030;7.024;2024-01-30T08:05:13;8.63;81.93
72128;DHT22;60000;51.030;7.024;2024-01-30T08:07:43;8.71;81.79
72128;DHT22;60000;51.030;7.024;2024-01-30T08:10:08;8.79;81.59
72128;DHT22;60000;51.030;7.024;2024-01-30T08:12:34;8.84;81.32
72128;DHT22;60000;51.030;7.024;2024-01-30T08:14:59;8.87;81.25
72128;DHT22;60000;51.030;7.024;2024-01-30T08:17:24;8.85;81.13
72128;DHT22;60000;51.030;7.024;2024-01-30T08:19:50;8.87;81.23
72128;DHT22;60000;51.030;7.024;2024-01-30T08:22:15;8.91;81.10
72128;DHT22;60000;51.030;7.024;2024-01-30T08:24:41;8.92;80.99
72128;DHT22;60000;51.030;7.024;2024-01-30T08:27:06;8.96;80.91
72128;DHT22;60000;51.030;7.024;2024-01-30T08:29:34;9.00;80.71
72128;DHT22;60000;51.030;7.024;2024-01-30T08:32:00;8.97;80.60
72128;DHT22;60000;51.030;7.024;2024-01-30T08:34:25;9.01;80.55
72128;DHT22;60000;51.030;7.024;2024-01-30T08:36:50;9.00;80.45
72128;DHT22;60000;51.030;7.024;2024-01-30T08:39:16;9.03;80.49
72128;DHT22;60000;51.030;7.024;2024-01-30T08:41:41;9.03;80.35
72128;DHT22;60000;51.030;7.024;2024-01-30T08:44:06;9.04;80.38
72128;DHT22;60000;51.030;7.024;2024-01-30T08:46:32;9.04;80.33
72128;DHT22;60000;51.030;7.024;2024-01-30T08:48:57;9.05;80.28
72128;DHT22;60000;51.030;7.024;2024-01-30T08:51:23;9.11;80.25
72128;DHT22;60000;51.030;7.024;2024-01-30T08:53:48;9.14;80.24
72128;DHT22;60000;51.030;7.024;2024-01-30T08:56:13;9.15;80.20
72128;DHT22;60000;51.030;7.024;2024-01-30T08:58:41;9.22;80.03
72128;DHT22;60000;51.030;7.024;2024-01-30T09:01:06;9.27;79.88
72128;DHT22;60000;51.030;7.024;2024-01-30T09:03:31;9.32;79.85
72128;DHT22;60000;51.030;7.024;2024-01-30T09:05:57;9.38;79.85
72128;DHT22;60000;51.030;7.024;2024-01-30T09:08:22;9.46;79.75
72128;DHT22;60000;51.030;7.024;2024-01-30T09:10:47;9.53;79.53
72128;DHT22;60000;51.030;7.024;2024-01-30T09:13:15;9.59;79.33
72128;DHT22;60000;51.030;7.024;2024-01-30T09:15:41;9.66;79.13
72128;DHT22;60000;51.030;7.024;2024-01-30T09:18:07;9.70;78.83
72128;DHT22;60000;51.030;7.024;2024-01-30T09:20:32;9.78;78.95
72128;DHT22;60000;51.030;7.024;2024-01-30T09:22:58;9.89;78.95
72128;DHT22;60000;51.030;7.024;2024-01-30T09:25:23;9.96;78.76
72128;DHT22;60000;51.030;7.024;2024-01-30T09:27:48;10.10;78.74
72128;DHT22;60000;51.030;7.024;2024-01-30T09:30:14;10.20;78.11
72128;DHT22;60000;51.030;7.024;2024-01-30T09:32:40;10.24;77.76
72128;DHT22;60000;51.030;7.024;2024-01-30T09:35:05;10.31;77.49
72128;DHT22;60000;51.030;7.024;2024-01-30T09:37:31;10.34;77.26
72128;DHT22;60000;51.030;7.024;2024-01-30T09:39:56;10.38;76.88
72128;DHT22;60000;51.030;7.024;2024-01-30T09:42:31;10.41;76.56
72128;DHT22;60000;51.030;7.024;2024-01-30T09:44:58;10.45;76.23
72128;DHT22;60000;51.030;7.024;2024-01-30T09:47:23;10.47;76.38
72128;DHT22;60000;51.030;7.024;2024-01-30T09:49:51;10.48;76.31
72128;DHT22;60000;51.030;7.024;2024-01-30T09:52:16;10.49;76.25
72128;DHT22;60000;51.030;7.024;2024-01-30T09:54:41;10.52;76.08
72128;DHT22;60000;51.030;7.024;2024-01-30T09:57:07;10.59;76.40
72128;DHT22;60000;51.030;7.024;2024-01-30T09:59:33;10.67;75.93
72128;DHT22;60000;51.030;7.024;2024-01-30T10:01:59;10.72;75.60
72128;DHT22;60000;51.030;7.024;2024-01-30T10:04:24;10.72;75.18
72128;DHT22;60000;51.030;7.024;2024-01-30T10:06:50;10.80;75.66
72128;DHT22;60000;51.030;7.024;2024-01-30T10:09:16;11.03;76.26
72128;DHT22;60000;51.030;7.024;2024-01-30T10:11:41;11.27;75.16
72128;DHT22;60000;51.030;7.024;2024-01-30T10:14:06;11.38;74.80
72128;DHT22;60000;51.030;7.024;2024-01-30T10:16:34;11.47;74.79
72128;DHT22;60000;51.030;7.024;2024-01-30T10:18:59;11.53;74.28
72128;DHT22;60000;51.030;7.024;2024-01-30T10:21:25;11.61;73.96
72128;DHT22;60000;51.030;7.024;2024-01-30T10:23:50;11.64;73.34
72128;DHT22;60000;51.030;7.024;2024-01-30T10:26:16;11.67;73.12
72128;DHT22;60000;51.030;7.024;2024-01-30T10:28:42;11.78;73.16
72128;DHT22;60000;51.030;7.024;2024-01-30T10:31:08;11.87;72.59
72128;DHT22;60000;51.030;7.024;2024-01-30T10:33:33;11.91;72.54
72128;DHT22;60000;51.030;7.024;2024-01-30T10:36:03;11.89;71.72
72128;DHT22;60000;51.030;7.024;2024-01-30T10:38:30;11.84;71.67
72128;DHT22;60000;51.030;7.024;2024-01-30T10:41:00;11.74;71.81
72128;DHT22;60000;51.030;7.024;2024-01-30T10:43:47;11.67;72.09
72128;DHT22;60000;51.030;7.024;2024-01-30T10:46:19;11.63;72.27
72128;DHT22;60000;51.030;7.024;2024-01-30T10:48:58;11.58;72.24
72128;DHT22;60000;51.030;7.024;2024-01-30T10:51:27;11.56;72.60
72128;DHT22;60000;51.030;7.024;2024-01-30T10:53:53;11.57;72.80
72128;DHT22;60000;51.030;7.024;2024-01-30T10:56:22;11.58;72.97
72128;DHT22;60000;51.030;7.024;2024-01-30T10:58:50;11.64;72.80
72128;DHT22;60000;51.030;7.024;2024-01-30T11:01:18;11.66;73.01
72128;DHT22;60000;51.030;7.024;2024-01-30T11:03:44;11.73;72.84
72128;DHT22;60000;51.030;7.024;2024-01-30T11:06:11;11.74;72.90
72128;DHT22;60000;51.030;7.024;2024-01-30T11:08:44;11.75;72.98
72128;DHT22;60000;51.030;7.024;2024-01-30T11:11:10;11.79;72.79
72128;DHT22;60000;51.030;7.024;2024-01-30T11:13:36;11.84;72.92
72128;DHT22;60000;51.030;7.024;2024-01-30T11:16:02;11.89;72.82
72128;DHT22;60000;51.030;7.024;2024-01-30T11:18:32;11.95;72.81
72128;DHT22;60000;51.030;7.024;2024-01-30T11:20:59;11.97;72.51
72128;DHT22;60000;51.030;7.024;2024-01-30T11:23:26;12.02;72.57
72128;DHT22;60000;51.030;7.024;2024-01-30T11:25:52;12.02;72.11
72128;DHT22;60000;51.030;7.024;2024-01-30T11:28:18;12.05;72.29
72128;DHT22;60000;51.030;7.024;2024-01-30T11:30:45;12.12;72.52
72128;DHT22;60000;51.030;7.024;2024-01-30T11:33:13;12.19;72.24
72128;DHT22;60000;51.030;7.024;2024-01-30T11:35:40;12.24;72.39
72128;DHT22;60000;51.030;7.024;2024-01-30T11:38:06;12.32;72.04
72128;DHT22;60000;51.030;7.024;2024-01-30T11:40:33;12.39;71.88
72128;DHT22;60000;51.030;7.024;2024-01-30T11:43:00;12.43;71.84
72128;DHT22;60000;51.030;7.024;2024-01-30T11:45:26;12.50;71.67
72128;DHT22;60000;51.030;7.024;2024-01-30T11:47:52;12.53;71.47
72128;DHT22;60000;51.030;7.024;2024-01-30T11:50:18;12.59;71.37
72128;DHT22;60000;51.030;7.024;2024-01-30T11:52:44;12.64;71.07
72128;DHT22;60000;51.030;7.024;2024-01-30T11:55:10;12.70;71.41
72128;DHT22;60000;51.030;7.024;2024-01-30T11:57:35;12.74;70.80
72128;DHT22;60000;51.030;7.024;2024-01-30T12:00:03;12.77;70.62
72128;DHT22;60000;51.030;7.024;2024-01-30T12:02:39;12.76;70.86
72128;DHT22;60000;51.030;7.024;2024-01-30T12:05:07;12.79;70.84
72128;DHT22;60000;51.030;7.024;2024-01-30T12:07:33;12.81;70.91
72128;DHT22;60000;51.030;7.024;2024-01-30T12:09:58;12.84;70.93
72128;DHT22;60000;51.030;7.024;2024-01-30T12:12:25;12.86;70.82
72128;DHT22;60000;51.030;7.024;2024-01-30T12:14:51;12.87;70.88
72128;DHT22;60000;51.030;7.024;2024-01-30T12:17:30;12.94;70.98
72128;DHT22;60000;51.030;7.024;2024-01-30T12:20:17;12.91;70.80
72128;DHT22;60000;51.030;7.024;2024-01-30T12:22:44;12.91;70.74
72128;DHT22;60000;51.030;7.024;2024-01-30T12:25:12;12.91;70.92
72128;DHT22;60000;51.030;7.024;2024-01-30T12:27:39;12.91;70.83
72128;DHT22;60000;51.030;7.024;2024-01-30T12:30:08;12.87;70.49
72128;DHT22;60000;51.030;7.024;2024-01-30T12:32:40;12.87;70.67
72128;DHT22;60000;51.030;7.024;2024-01-30T12:35:15;12.86;70.73
72128;DHT22;60000;51.030;7.024;2024-01-30T12:37:43;12.90;70.93
72128;DHT22;60000;51.030;7.024;2024-01-30T12:40:09;12.94;70.85
72128;DHT22;60000;51.030;7.024;2024-01-30T12:42:35;13.00;70.73
72128;DHT22;60000;51.030;7.024;2024-01-30T12:45:02;13.04;70.88
72128;DHT22;60000;51.030;7.024;2024-01-30T12:47:27;13.07;70.80
72128;DHT22;60000;51.030;7.024;2024-01-30T12:49:53;13.07;70.59
72128;DHT22;60000;51.030;7.024;2024-01-30T12:52:19;13.14;70.57
72128;DHT22;60000;51.030;7.024;2024-01-30T12:54:45;13.15;70.28
72128;DHT22;60000;51.030;7.024;2024-01-30T12:57:11;13.16;70.34
72128;DHT22;60000;51.030;7.024;2024-01-30T12:59:36;13.19;70.05
72128;DHT22;60000;51.030;7.024;2024-01-30T13:02:01;13.21;69.99
72128;DHT22;60000;51.030;7.024;2024-01-30T13:04:28;13.19;69.87
72128;DHT22;60000;51.030;7.024;2024-01-30T13:06:53;13.19;69.78
72128;DHT22;60000;51.030;7.024;2024-01-30T13:09:19;13.15;69.76
72128;DHT22;60000;51.030;7.024;2024-01-30T13:11:44;13.15;70.10
72128;DHT22;60000;51.030;7.024;2024-01-30T13:14:10;13.12;70.10
72128;DHT22;60000;51.030;7.024;2024-01-30T13:16:35;13.05;69.93
72128;DHT22;60000;51.030;7.024;2024-01-30T13:19:01;13.04;70.30
72128;DHT22;60000;51.030;7.024;2024-01-30T13:21:27;12.97;70.53
72128;DHT22;60000;51.030;7.024;2024-01-30T13:23:52;12.95;70.72
72128;DHT22;60000;51.030;7.024;2024-01-30T13:26:20;13.01;70.76
72128;DHT22;60000;51.030;7.024;2024-01-30T13:28:45;13.00;70.90
72128;DHT22;60000;51.030;7.024;2024-01-30T13:31:10;12.97;70.91
72128;DHT22;60000;51.030;7.024;2024-01-30T13:33:36;12.94;71.19
72128;DHT22;60000;51.030;7.024;2024-01-30T13:36:01;12.90;71.62
72128;DHT22;60000;51.030;7.024;2024-01-30T13:38:27;12.86;71.84
72128;DHT22;60000;51.030;7.024;2024-01-30T13:40:52;12.81;72.12
72128;DHT22;60000;51.030;7.024;2024-01-30T13:43:17;12.80;72.47
72128;DHT22;60000;51.030;7.024;2024-01-30T13:45:43;12.73;72.62
72128;DHT22;60000;51.030;7.024;2024-01-30T13:48:09;12.72;72.93
72128;DHT22;60000;51.030;7.024;2024-01-30T13:50:34;12.67;73.06
72128;DHT22;60000;51.030;7.024;2024-01-30T13:52:59;12.67;73.21
72128;DHT22;60000;51.030;7.024;2024-01-30T13:55:25;12.64;73.53
72128;DHT22;60000;51.030;7.024;2024-01-30T13:57:50;12.67;73.98
72128;DHT22;60000;51.030;7.024;2024-01-30T14:00:16;12.79;74.93
72128;DHT22;60000;51.030;7.024;2024-01-30T14:02:42;12.83;74.80
72128;DHT22;60000;51.030;7.024;2024-01-30T14:05:08;12.81;74.83
72128;DHT22;60000;51.030;7.024;2024-01-30T14:07:35;12.81;75.06
72128;DHT22;60000;51.030;7.024;2024-01-30T14:10:00;12.80;75.05
72128;DHT22;60000;51.030;7.024;2024-01-30T14:12:26;12.81;75.22
72128;DHT22;60000;51.030;7.024;2024-01-30T14:14:51;12.76;75.30
72128;DHT22;60000;51.030;7.024;2024-01-30T14:17:16;12.80;75.26
72128;DHT22;60000;51.030;7.024;2024-01-30T14:19:42;12.79;75.45
72128;DHT22;60000;51.030;7.024;2024-01-30T14:22:07;12.76;75.44
72128;DHT22;60000;51.030;7.024;2024-01-30T14:24:33;12.74;75.45
72128;DHT22;60000;51.030;7.024;2024-01-30T14:26:58;12.73;75.37
72128;DHT22;60000;51.030;7.024;2024-01-30T14:29:24;12.72;75.39
72128;DHT22;60000;51.030;7.024;2024-01-30T14:31:50;12.73;75.46
72128;DHT22;60000;51.030;7.024;2024-01-30T14:34:15;12.72;75.59
72128;DHT22;60000;51.030;7.024;2024-01-30T14:36:40;12.68;75.60
72128;DHT22;60000;51.030;7.024;2024-01-30T14:39:06;12.61;75.75
72128;DHT22;60000;51.030;7.024;2024-01-30T14:41:32;12.61;76.01
72128;DHT22;60000;51.030;7.024;2024-01-30T14:43:57;12.60;76.18
72128;DHT22;60000;51.030;7.024;2024-01-30T14:46:23;12.63;76.14
72128;DHT22;60000;51.030;7.024;2024-01-30T14:48:48;12.61;76.24
72128;DHT22;60000;51.030;7.024;2024-01-30T14:51:16;12.60;76.37
72128;DHT22;60000;51.030;7.024;2024-01-30T14:53:41;12.60;76.42
72128;DHT22;60000;51.030;7.024;2024-01-30T14:56:07;12.60;76.43
72128;DHT22;60000;51.030;7.024;2024-01-30T14:58:32;12.56;76.37
72128;DHT22;60000;51.030;7.024;2024-01-30T15:00:58;12.55;76.55
72128;DHT22;60000;51.030;7.024;2024-01-30T15:03:23;12.57;76.33
72128;DHT22;60000;51.030;7.024;2024-01-30T15:05:48;12.53;76.31
72128;DHT22;60000;51.030;7.024;2024-01-30T15:08:14;12.47;76.38
72128;DHT22;60000;51.030;7.024;2024-01-30T15:10:39;12.47;76.41
72128;DHT22;60000;51.030;7.024;2024-01-30T15:13:04;12.45;76.35
72128;DHT22;60000;51.030;7.024;2024-01-30T15:15:30;12.43;76.40
72128;DHT22;60000;51.030;7.024;2024-01-30T15:17:56;12.42;76.48
72128;DHT22;60000;51.030;7.024;2024-01-30T15:20:21;12.42;76.43
72128;DHT22;60000;51.030;7.024;2024-01-30T15:22:47;12.42;76.46
72128;DHT22;60000;51.030;7.024;2024-01-30T15:25:12;12.39;76.40
72128;DHT22;60000;51.030;7.024;2024-01-30T15:27:38;12.35;76.55
72128;DHT22;60000;51.030;7.024;2024-01-30T15:30:05;12.35;76.68
72128;DHT22;60000;51.030;7.024;2024-01-30T15:32:30;12.30;76.78